sensor_id;sensor_type;location;lat;lon;timestamp;P1;durP1;ratioP1;P2;durP2;ratioP2
17372;SDS011;8803;48.116;11.590;2022-08-21T00:01:30;1.63;;;1.50;;
17372;SDS011;8803;48.116;11.590;2022-08-21T00:03:43;1.67;;;1.57;;
17372;SDS011;8803;48.116;11.590;2022-08-21T00:05:48;1.70;;;1.60;;
17372;SDS011;8803;48.116;11.590;2022-08-21T00:08:01;1.53;;;1.37;;
17372;SDS011;8803;48.116;11.590;2022-08-21T00:10:06;2.73;;;1.50;;
17372;SDS011;8803;48.116;11.590;2022-08-21T00:12:11;1.50;;;1.40;;
17372;SDS011;8803;48.116;11.590;2022-08-21T00:14:24;1.97;;;1.60;;
17372;SDS011;8803;48.116;11.590;2022-08-21T00:16:27;1.40;;;1.30;;
17372;SDS011;8803;48.116;11.590;2022-08-21T00:18:40;1.70;;;1.60;;
17372;SDS011;8803;48.116;11.590;2022-08-21T00:20:44;1.80;;;1.40;;
17372;SDS011;8803;48.116;11.590;2022-08-21T00:22:49;1.50;;;1.40;;
17372;SDS011;8803;48.116;11.590;2022-08-21T00:24:53;2.50;;;1.20;;
17372;SDS011;8803;48.116;11.590;2022-08-21T00:27:06;1.43;;;1.27;;
17372;SDS011;8803;48.116;11.590;2022-08-21T00:29:10;2.30;;;1.47;;
17372;SDS011;8803;48.116;11.590;2022-08-21T00:31:14;1.30;;;1.20;;
17372;SDS011;8803;48.116;11.590;2022-08-21T00:33:27;1.50;;;1.40;;
17372;SDS011;8803;48.116;11.590;2022-08-21T00:35:32;1.97;;;1.30;;
17372;SDS011;8803;48.116;11.590;2022-08-21T00:37:44;2.00;;;1.20;;
17372;SDS011;8803;48.116;11.590;2022-08-21T00:39:48;1.50;;;1.40;;
17372;SDS011;8803;48.116;11.590;2022-08-21T00:42:05;1.70;;;1.27;;
17372;SDS011;8803;48.116;11.590;2022-08-21T00:44:10;1.30;;;1.20;;
17372;SDS011;8803;48.116;11.590;2022-08-21T00:46:22;1.50;;;1.40;;
17372;SDS011;8803;48.116;11.590;2022-08-21T00:48:26;1.57;;;1.47;;
17372;SDS011;8803;48.116;11.590;2022-08-21T00:50:40;1.47;;;1.23;;
17372;SDS011;8803;48.116;11.590;2022-08-21T00:52:46;1.87;;;1.67;;
17372;SDS011;8803;48.116;11.590;2022-08-21T00:54:51;1.50;;;1.40;;
17372;SDS011;8803;48.116;11.590;2022-08-21T00:57:07;2.10;;;1.40;;
17372;SDS011;8803;48.116;11.590;2022-08-21T00:59:13;2.50;;;1.40;;
17372;SDS011;8803;48.116;11.590;2022-08-21T01:01:17;1.73;;;1.10;;
17372;SDS011;8803;48.116;11.590;2022-08-21T01:03:22;2.50;;;1.40;;
17372;SDS011;8803;48.116;11.590;2022-08-21T01:05:35;1.30;;;1.20;;
17372;SDS011;8803;48.116;11.590;2022-08-21T01:07:39;1.60;;;1.40;;
17372;SDS011;8803;48.116;11.590;2022-08-21T01:09:45;1.30;;;1.20;;
17372;SDS011;8803;48.116;11.590;2022-08-21T01:11:50;1.20;;;1.00;;
17372;SDS011;8803;48.116;11.590;2022-08-21T01:13:54;1.27;;;1.17;;
17372;SDS011;8803;48.116;11.590;2022-08-21T01:16:08;1.30;;;1.20;;
17372;SDS011;8803;48.116;11.590;2022-08-21T01:18:12;1.60;;;1.40;;
17372;SDS011;8803;48.116;11.590;2022-08-21T01:20:26;1.93;;;1.57;;
17372;SDS011;8803;48.116;11.590;2022-08-21T01:22:30;1.20;;;1.10;;
17372;SDS011;8803;48.116;11.590;2022-08-21T01:24:43;0.87;;;0.87;;
17372;SDS011;8803;48.116;11.590;2022-08-21T01:26:47;1.67;;;1.10;;
17372;SDS011;8803;48.116;11.590;2022-08-21T01:29:02;1.20;;;1.07;;
17372;SDS011;8803;48.116;11.590;2022-08-21T01:31:07;1.40;;;1.30;;
17372;SDS011;8803;48.116;11.590;2022-08-21T01:33:21;1.40;;;1.30;;
17372;SDS011;8803;48.116;11.590;2022-08-21T01:35:27;1.30;;;1.20;;
17372;SDS011;8803;48.116;11.590;2022-08-21T01:37:41;1.50;;;1.40;;
17372;SDS011;8803;48.116;11.590;2022-08-21T01:39:45;1.03;;;1.00;;
17372;SDS011;8803;48.116;11.590;2022-08-21T01:41:50;1.40;;;1.30;;
17372;SDS011;8803;48.116;11.590;2022-08-21T01:43:53;1.33;;;1.23;;
17372;SDS011;8803;48.116;11.590;2022-08-21T01:46:06;1.30;;;1.20;;
17372;SDS011;8803;48.116;11.590;2022-08-21T01:48:10;1.37;;;1.27;;
17372;SDS011;8803;48.116;11.590;2022-08-21T01:50:15;2.40;;;1.30;;
17372;SDS011;8803;48.116;11.590;2022-08-21T01:52:21;3.43;;;1.33;;
17372;SDS011;8803;48.116;11.590;2022-08-21T01:54:25;1.33;;;1.23;;
17372;SDS011;8803;48.116;11.590;2022-08-21T01:56:38;1.13;;;1.03;;
17372;SDS011;8803;48.116;11.590;2022-08-21T01:58:44;1.93;;;1.30;;
17372;SDS011;8803;48.116;11.590;2022-08-21T02:00:49;2.30;;;1.30;;
17372;SDS011;8803;48.116;11.590;2022-08-21T02:03:02;1.47;;;1.20;;
17372;SDS011;8803;48.116;11.590;2022-08-21T02:05:07;1.40;;;1.30;;
17372;SDS011;8803;48.116;11.590;2022-08-21T02:07:21;1.60;;;1.30;;
17372;SDS011;8803;48.116;11.590;2022-08-21T02:09:25;1.47;;;1.20;;
17372;SDS011;8803;48.116;11.590;2022-08-21T02:11:29;1.97;;;1.67;;
17372;SDS011;8803;48.116;11.590;2022-08-21T02:13:33;2.20;;;1.20;;
17372;SDS011;8803;48.116;11.590;2022-08-21T02:17:49;1.20;;;1.10;;
17372;SDS011;8803;48.116;11.590;2022-08-21T02:19:55;1.83;;;1.20;;
17372;SDS011;8803;48.116;11.590;2022-08-21T02:21:58;1.20;;;1.10;;
17372;SDS011;8803;48.116;11.590;2022-08-21T02:24:03;1.27;;;1.10;;
17372;SDS011;8803;48.116;11.590;2022-08-21T02:26:17;1.20;;;1.10;;
17372;SDS011;8803;48.116;11.590;2022-08-21T02:28:21;1.47;;;1.37;;
17372;SDS011;8803;48.116;11.590;2022-08-21T02:30:35;1.20;;;1.10;;
17372;SDS011;8803;48.116;11.590;2022-08-21T02:32:40;1.30;;;1.20;;
17372;SDS011;8803;48.116;11.590;2022-08-21T02:34:52;1.30;;;1.20;;
17372;SDS011;8803;48.116;11.590;2022-08-21T02:36:56;1.17;;;1.07;;
17372;SDS011;8803;48.116;11.590;2022-08-21T02:39:09;1.00;;;1.00;;
17372;SDS011;8803;48.116;11.590;2022-08-21T02:41:14;1.30;;;1.20;;
17372;SDS011;8803;48.116;11.590;2022-08-21T02:43:20;2.80;;;1.20;;
17372;SDS011;8803;48.116;11.590;2022-08-21T02:45:33;1.30;;;1.20;;
17372;SDS011;8803;48.116;11.590;2022-08-21T02:47:38;1.93;;;1.30;;
17372;SDS011;8803;48.116;11.590;2022-08-21T02:49:52;1.10;;;1.00;;
17372;SDS011;8803;48.116;11.590;2022-08-21T02:51:56;1.43;;;1.00;;
17372;SDS011;8803;48.116;11.590;2022-08-21T02:54:00;1.40;;;1.30;;
17372;SDS011;8803;48.116;11.590;2022-08-21T02:56:05;1.60;;;1.17;;
17372;SDS011;8803;48.116;11.590;2022-08-21T02:58:19;1.27;;;1.17;;
17372;SDS011;8803;48.116;11.590;2022-08-21T03:00:25;1.20;;;1.10;;
17372;SDS011;8803;48.116;11.590;2022-08-21T03:02:38;1.23;;;1.13;;
17372;SDS011;8803;48.116;11.590;2022-08-21T03:04:42;1.30;;;1.20;;
17372;SDS011;8803;48.116;11.590;2022-08-21T03:06:54;1.30;;;1.20;;
17372;SDS011;8803;48.116;11.590;2022-08-21T03:08:58;1.20;;;1.10;;
17372;SDS011;8803;48.116;11.590;2022-08-21T03:11:02;2.07;;;1.37;;
17372;SDS011;8803;48.116;11.590;2022-08-21T03:13:07;1.30;;;1.20;;
17372;SDS011;8803;48.116;11.590;2022-08-21T03:15:11;1.20;;;1.10;;
17372;SDS011;8803;48.116;11.590;2022-08-21T03:17:26;1.67;;;1.33;;
17372;SDS011;8803;48.116;11.590;2022-08-21T03:19:30;1.70;;;1.40;;
17372;SDS011;8803;48.116;11.590;2022-08-21T03:21:34;1.70;;;1.20;;
17372;SDS011;8803;48.116;11.590;2022-08-21T03:23:37;1.40;;;1.30;;
17372;SDS011;8803;48.116;11.590;2022-08-21T03:25:50;1.43;;;1.33;;
17372;SDS011;8803;48.116;11.590;2022-08-21T03:27:54;1.10;;;1.00;;
17372;SDS011;8803;48.116;11.590;2022-08-21T03:30:07;1.43;;;1.33;;
17372;SDS011;8803;48.116;11.590;2022-08-21T03:32:12;1.47;;;1.13;;
17372;SDS011;8803;48.116;11.590;2022-08-21T03:34:16;1.60;;;1.50;;
17372;SDS011;8803;48.116;11.590;2022-08-21T03:36:31;1.23;;;1.13;;
17372;SDS011;8803;48.116;11.590;2022-08-21T03:38:35;1.67;;;1.40;;
17372;SDS011;8803;48.116;11.590;2022-08-21T03:40:40;1.00;;;1.00;;
17372;SDS011;8803;48.116;11.590;2022-08-21T03:42:45;1.80;;;1.67;;
17372;SDS011;8803;48.116;11.590;2022-08-21T03:44:49;1.30;;;1.20;;
17372;SDS011;8803;48.116;11.590;2022-08-21T03:47:01;1.10;;;1.00;;
17372;SDS011;8803;48.116;11.590;2022-08-21T03:49:06;1.40;;;1.30;;
17372;SDS011;8803;48.116;11.590;2022-08-21T03:51:10;1.40;;;1.30;;
17372;SDS011;8803;48.116;11.590;2022-08-21T03:53:14;1.20;;;1.10;;
17372;SDS011;8803;48.116;11.590;2022-08-21T03:55:18;1.00;;;1.00;;
17372;SDS011;8803;48.116;11.590;2022-08-21T03:57:31;2.13;;;1.20;;
17372;SDS011;8803;48.116;11.590;2022-08-21T03:59:35;1.50;;;1.40;;
17372;SDS011;8803;48.116;11.590;2022-08-21T04:01:40;1.30;;;1.20;;
17372;SDS011;8803;48.116;11.590;2022-08-21T04:04:02;1.73;;;1.63;;
17372;SDS011;8803;48.116;11.590;2022-08-21T04:06:07;1.50;;;1.40;;
17372;SDS011;8803;48.116;11.590;2022-08-21T04:08:19;5.00;;;4.07;;
17372;SDS011;8803;48.116;11.590;2022-08-21T04:10:24;5.77;;;4.90;;
17372;SDS011;8803;48.116;11.590;2022-08-21T04:12:39;9.53;;;8.53;;
17372;SDS011;8803;48.116;11.590;2022-08-21T04:14:43;8.93;;;8.03;;
17372;SDS011;8803;48.116;11.590;2022-08-21T04:16:55;6.13;;;5.60;;
17372;SDS011;8803;48.116;11.590;2022-08-21T04:18:59;5.10;;;4.57;;
17372;SDS011;8803;48.116;11.590;2022-08-21T04:21:03;4.73;;;4.33;;
17372;SDS011;8803;48.116;11.590;2022-08-21T04:23:08;4.67;;;4.17;;
17372;SDS011;8803;48.116;11.590;2022-08-21T04:25:12;3.43;;;2.97;;
17372;SDS011;8803;48.116;11.590;2022-08-21T04:27:28;3.07;;;2.77;;
17372;SDS011;8803;48.116;11.590;2022-08-21T04:29:31;2.20;;;2.00;;
17372;SDS011;8803;48.116;11.590;2022-08-21T04:31:44;1.97;;;1.77;;
17372;SDS011;8803;48.116;11.590;2022-08-21T04:35:59;1.40;;;1.30;;
17372;SDS011;8803;48.116;11.590;2022-08-21T04:38:03;1.80;;;1.70;;
17372;SDS011;8803;48.116;11.590;2022-08-21T04:40:08;1.30;;;1.20;;
17372;SDS011;8803;48.116;11.590;2022-08-21T04:42:15;1.33;;;1.23;;
17372;SDS011;8803;48.116;11.590;2022-08-21T04:44:18;1.77;;;1.50;;
17372;SDS011;8803;48.116;11.590;2022-08-21T04:46:32;1.67;;;1.57;;
17372;SDS011;8803;48.116;11.590;2022-08-21T04:48:36;1.50;;;1.40;;
17372;SDS011;8803;48.116;11.590;2022-08-21T04:50:41;2.40;;;1.33;;
17372;SDS011;8803;48.116;11.590;2022-08-21T04:52:53;3.83;;;1.40;;
17372;SDS011;8803;48.116;11.590;2022-08-21T04:54:58;1.37;;;1.27;;
17372;SDS011;8803;48.116;11.590;2022-08-21T04:57:10;1.63;;;1.53;;
17372;SDS011;8803;48.116;11.590;2022-08-21T04:59:17;1.60;;;1.20;;
17372;SDS011;8803;48.116;11.590;2022-08-21T05:01:23;1.50;;;1.40;;
17372;SDS011;8803;48.116;11.590;2022-08-21T05:03:29;1.50;;;1.40;;
17372;SDS011;8803;48.116;11.590;2022-08-21T05:05:42;1.40;;;1.30;;
17372;SDS011;8803;48.116;11.590;2022-08-21T05:07:47;1.87;;;1.13;;
17372;SDS011;8803;48.116;11.590;2022-08-21T05:09:51;1.50;;;1.40;;
17372;SDS011;8803;48.116;11.590;2022-08-21T05:12:05;2.47;;;1.50;;
17372;SDS011;8803;48.116;11.590;2022-08-21T05:14:10;2.43;;;1.30;;
17372;SDS011;8803;48.116;11.590;2022-08-21T05:16:22;1.30;;;1.20;;
17372;SDS011;8803;48.116;11.590;2022-08-21T05:18:26;1.50;;;1.40;;
17372;SDS011;8803;48.116;11.590;2022-08-21T05:20:38;2.50;;;1.30;;
17372;SDS011;8803;48.116;11.590;2022-08-21T05:22:51;2.07;;;1.57;;
17372;SDS011;8803;48.116;11.590;2022-08-21T05:24:56;1.20;;;1.10;;
17372;SDS011;8803;48.116;11.590;2022-08-21T05:27:12;1.20;;;1.10;;
17372;SDS011;8803;48.116;11.590;2022-08-21T05:29:16;1.70;;;1.37;;
17372;SDS011;8803;48.116;11.590;2022-08-21T05:31:20;1.10;;;1.00;;
17372;SDS011;8803;48.116;11.590;2022-08-21T05:33:24;1.33;;;1.23;;
17372;SDS011;8803;48.116;11.590;2022-08-21T05:37:39;1.60;;;1.50;;
17372;SDS011;8803;48.116;11.590;2022-08-21T05:39:43;2.30;;;1.10;;
17372;SDS011;8803;48.116;11.590;2022-08-21T05:41:55;1.33;;;1.23;;
17372;SDS011;8803;48.116;11.590;2022-08-21T05:43:59;1.63;;;1.07;;
17372;SDS011;8803;48.116;11.590;2022-08-21T05:46:11;1.87;;;1.00;;
17372;SDS011;8803;48.116;11.590;2022-08-21T05:48:17;2.53;;;1.03;;
17372;SDS011;8803;48.116;11.590;2022-08-21T05:50:31;0.90;;;0.90;;
17372;SDS011;8803;48.116;11.590;2022-08-21T05:52:35;1.10;;;1.00;;
17372;SDS011;8803;48.116;11.590;2022-08-21T05:54:38;2.17;;;1.23;;
17372;SDS011;8803;48.116;11.590;2022-08-21T05:56:51;1.80;;;1.37;;
17372;SDS011;8803;48.116;11.590;2022-08-21T05:58:55;1.45;;;1.15;;
17372;SDS011;8803;48.116;11.590;2022-08-21T06:00:59;1.10;;;1.00;;
17372;SDS011;8803;48.116;11.590;2022-08-21T06:03:03;0.93;;;0.93;;
17372;SDS011;8803;48.116;11.590;2022-08-21T06:05:08;1.70;;;0.97;;
17372;SDS011;8803;48.116;11.590;2022-08-21T06:07:21;1.20;;;1.02;;
17372;SDS011;8803;48.116;11.590;2022-08-21T06:09:24;0.70;;;0.70;;
17372;SDS011;8803;48.116;11.590;2022-08-21T06:11:29;1.10;;;0.98;;
17372;SDS011;8803;48.116;11.590;2022-08-21T06:13:33;0.90;;;0.90;;
17372;SDS011;8803;48.116;11.590;2022-08-21T06:15:46;1.25;;;0.90;;
17372;SDS011;8803;48.116;11.590;2022-08-21T06:17:50;1.25;;;1.02;;
17372;SDS011;8803;48.116;11.590;2022-08-21T06:19:55;1.10;;;1.00;;
17372;SDS011;8803;48.116;11.590;2022-08-21T06:21:59;1.10;;;1.00;;
17372;SDS011;8803;48.116;11.590;2022-08-21T06:24:04;1.65;;;0.70;;
17372;SDS011;8803;48.116;11.590;2022-08-21T06:26:16;0.90;;;0.90;;
17372;SDS011;8803;48.116;11.590;2022-08-21T06:28:21;0.90;;;0.90;;
17372;SDS011;8803;48.116;11.590;2022-08-21T06:30:24;1.07;;;0.98;;
17372;SDS011;8803;48.116;11.590;2022-08-21T06:32:28;1.10;;;1.00;;
17372;SDS011;8803;48.116;11.590;2022-08-21T06:34:41;1.35;;;1.10;;
17372;SDS011;8803;48.116;11.590;2022-08-21T06:36:44;2.58;;;1.12;;
17372;SDS011;8803;48.116;11.590;2022-08-21T06:38:57;1.00;;;0.90;;
17372;SDS011;8803;48.116;11.590;2022-08-21T06:41:01;1.87;;;1.35;;
17372;SDS011;8803;48.116;11.590;2022-08-21T06:43:06;1.52;;;1.17;;
17372;SDS011;8803;48.116;11.590;2022-08-21T06:45:19;1.62;;;1.32;;
17372;SDS011;8803;48.116;11.590;2022-08-21T06:47:23;1.07;;;0.98;;
17372;SDS011;8803;48.116;11.590;2022-08-21T06:49:27;1.20;;;1.10;;
17372;SDS011;8803;48.116;11.590;2022-08-21T06:51:31;2.45;;;1.20;;
17372;SDS011;8803;48.116;11.590;2022-08-21T06:53:43;1.27;;;1.10;;
17372;SDS011;8803;48.116;11.590;2022-08-21T06:55:48;1.20;;;1.10;;
17372;SDS011;8803;48.116;11.590;2022-08-21T06:58:00;2.55;;;1.27;;
17372;SDS011;8803;48.116;11.590;2022-08-21T07:00:06;1.20;;;1.10;;
17372;SDS011;8803;48.116;11.590;2022-08-21T07:02:12;1.55;;;1.17;;
17372;SDS011;8803;48.116;11.590;2022-08-21T07:04:15;2.58;;;1.35;;
17372;SDS011;8803;48.116;11.590;2022-08-21T07:06:28;2.27;;;1.52;;
17372;SDS011;8803;48.116;11.590;2022-08-21T07:08:32;1.45;;;1.07;;
17372;SDS011;8803;48.116;11.590;2022-08-21T07:10:35;1.62;;;1.10;;
17372;SDS011;8803;48.116;11.590;2022-08-21T07:12:39;2.75;;;1.65;;
17372;SDS011;8803;48.116;11.590;2022-08-21T07:14:43;1.22;;;1.00;;
17372;SDS011;8803;48.116;11.590;2022-08-21T07:16:55;2.37;;;1.20;;
17372;SDS011;8803;48.116;11.590;2022-08-21T07:18:59;1.62;;;1.40;;
17372;SDS011;8803;48.116;11.590;2022-08-21T07:21:03;1.70;;;1.40;;
17372;SDS011;8803;48.116;11.590;2022-08-21T07:23:18;1.55;;;1.20;;
17372;SDS011;8803;48.116;11.590;2022-08-21T07:25:24;1.90;;;1.20;;
17372;SDS011;8803;48.116;11.590;2022-08-21T07:27:36;1.70;;;1.50;;
17372;SDS011;8803;48.116;11.590;2022-08-21T07:29:40;1.50;;;1.40;;
17372;SDS011;8803;48.116;11.590;2022-08-21T07:31:44;2.62;;;1.72;;
17372;SDS011;8803;48.116;11.590;2022-08-21T07:33:48;1.62;;;1.52;;
17372;SDS011;8803;48.116;11.590;2022-08-21T07:36:00;1.40;;;1.30;;
17372;SDS011;8803;48.116;11.590;2022-08-21T07:38:05;1.47;;;1.32;;
17372;SDS011;8803;48.116;11.590;2022-08-21T07:40:10;2.27;;;1.30;;
17372;SDS011;8803;48.116;11.590;2022-08-21T07:42:14;1.67;;;1.42;;
17372;SDS011;8803;48.116;11.590;2022-08-21T07:44:18;2.02;;;1.40;;
17372;SDS011;8803;48.116;11.590;2022-08-21T07:46:30;1.50;;;1.30;;
17372;SDS011;8803;48.116;11.590;2022-08-21T07:48:34;2.55;;;1.60;;
17372;SDS011;8803;48.116;11.590;2022-08-21T07:50:47;1.47;;;1.20;;
17372;SDS011;8803;48.116;11.590;2022-08-21T07:52:52;1.80;;;1.45;;
17372;SDS011;8803;48.116;11.590;2022-08-21T07:54:55;2.17;;;1.57;;
17372;SDS011;8803;48.116;11.590;2022-08-21T07:57:08;1.90;;;1.70;;
17372;SDS011;8803;48.116;11.590;2022-08-21T07:59:12;2.08;;;1.55;;
17372;SDS011;8803;48.116;11.590;2022-08-21T08:01:24;1.80;;;1.70;;
17372;SDS011;8803;48.116;11.590;2022-08-21T08:03:28;1.98;;;1.60;;
17372;SDS011;8803;48.116;11.590;2022-08-21T08:05:40;2.42;;;1.82;;
17372;SDS011;8803;48.116;11.590;2022-08-21T08:07:44;2.17;;;1.82;;
17372;SDS011;8803;48.116;11.590;2022-08-21T08:09:48;1.80;;;1.70;;
17372;SDS011;8803;48.116;11.590;2022-08-21T08:11:52;2.25;;;1.90;;
17372;SDS011;8803;48.116;11.590;2022-08-21T08:13:56;3.65;;;1.72;;
17372;SDS011;8803;48.116;11.590;2022-08-21T08:16:08;2.47;;;1.80;;
17372;SDS011;8803;48.116;11.590;2022-08-21T08:18:12;3.33;;;2.20;;
17372;SDS011;8803;48.116;11.590;2022-08-21T08:20:16;1.87;;;1.77;;
17372;SDS011;8803;48.116;11.590;2022-08-21T08:22:22;2.10;;;1.90;;
17372;SDS011;8803;48.116;11.590;2022-08-21T08:24:26;2.50;;;1.90;;
17372;SDS011;8803;48.116;11.590;2022-08-21T08:26:41;2.55;;;2.35;;
17372;SDS011;8803;48.116;11.590;2022-08-21T08:28:44;2.52;;;2.33;;
17372;SDS011;8803;48.116;11.590;2022-08-21T08:30:48;2.20;;;2.00;;
17372;SDS011;8803;48.116;11.590;2022-08-21T08:32:52;1.90;;;1.80;;
17372;SDS011;8803;48.116;11.590;2022-08-21T08:34:58;2.08;;;1.95;;
17372;SDS011;8803;48.116;11.590;2022-08-21T08:37:10;2.40;;;2.20;;
17372;SDS011;8803;48.116;11.590;2022-08-21T08:39:14;2.50;;;1.85;;
17372;SDS011;8803;48.116;11.590;2022-08-21T08:41:19;2.08;;;1.95;;
17372;SDS011;8803;48.116;11.590;2022-08-21T08:43:24;4.45;;;2.52;;
17372;SDS011;8803;48.116;11.590;2022-08-21T08:45:29;2.30;;;2.10;;
17372;SDS011;8803;48.116;11.590;2022-08-21T08:47:44;2.75;;;2.20;;
17372;SDS011;8803;48.116;11.590;2022-08-21T08:49:53;2.52;;;2.33;;
17372;SDS011;8803;48.116;11.590;2022-08-21T08:52:18;2.60;;;2.40;;
17372;SDS011;8803;48.116;11.590;2022-08-21T08:54:15;2.83;;;2.62;;
17372;SDS011;8803;48.116;11.590;2022-08-21T08:56:25;2.50;;;2.30;;
17372;SDS011;8803;48.116;11.590;2022-08-21T08:58:39;2.60;;;2.40;;
17372;SDS011;8803;48.116;11.590;2022-08-21T09:00:45;3.55;;;2.67;;
17372;SDS011;8803;48.116;11.590;2022-08-21T09:02:59;2.50;;;2.30;;
17372;SDS011;8803;48.116;11.590;2022-08-21T09:05:06;2.67;;;2.00;;
17372;SDS011;8803;48.116;11.590;2022-08-21T09:07:22;2.67;;;2.15;;
17372;SDS011;8803;48.116;11.590;2022-08-21T09:09:31;2.60;;;2.40;;
17372;SDS011;8803;48.116;11.590;2022-08-21T09:11:50;2.72;;;2.40;;
17372;SDS011;8803;48.116;11.590;2022-08-21T09:13:54;2.42;;;2.22;;
17372;SDS011;8803;48.116;11.590;2022-08-21T09:16:03;2.70;;;2.50;;
17372;SDS011;8803;48.116;11.590;2022-08-21T09:18:11;2.70;;;2.50;;
17372;SDS011;8803;48.116;11.590;2022-08-21T09:20:32;2.25;;;2.05;;
17372;SDS011;8803;48.116;11.590;2022-08-21T09:22:38;2.85;;;2.47;;
17372;SDS011;8803;48.116;11.590;2022-08-21T09:24:54;2.67;;;2.47;;
17372;SDS011;8803;48.116;11.590;2022-08-21T09:27:08;3.17;;;2.15;;
17372;SDS011;8803;48.116;11.590;2022-08-21T09:29:14;2.45;;;2.27;;
17372;SDS011;8803;48.116;11.590;2022-08-21T09:31:30;2.75;;;2.22;;
17372;SDS011;8803;48.116;11.590;2022-08-21T09:33:36;2.70;;;2.50;;
17372;SDS011;8803;48.116;11.590;2022-08-21T09:35:52;3.00;;;2.50;;
17372;SDS011;8803;48.116;11.590;2022-08-21T09:38:00;2.65;;;2.45;;
17372;SDS011;8803;48.116;11.590;2022-08-21T09:40:15;2.50;;;2.30;;
17372;SDS011;8803;48.116;11.590;2022-08-21T09:42:23;2.30;;;2.10;;
17372;SDS011;8803;48.116;11.590;2022-08-21T09:44:30;2.83;;;2.50;;
17372;SDS011;8803;48.116;11.590;2022-08-21T09:46:49;2.60;;;2.40;;
17372;SDS011;8803;48.116;11.590;2022-08-21T09:48:54;2.50;;;2.30;;
17372;SDS011;8803;48.116;11.590;2022-08-21T09:51:06;2.55;;;2.35;;
17372;SDS011;8803;48.116;11.590;2022-08-21T09:53:16;4.00;;;2.27;;
17372;SDS011;8803;48.116;11.590;2022-08-21T09:57:34;2.47;;;2.27;;
17372;SDS011;8803;48.116;11.590;2022-08-21T09:59:43;3.08;;;2.72;;
17372;SDS011;8803;48.116;11.590;2022-08-21T10:04:02;2.50;;;2.30;;
17372;SDS011;8803;48.116;11.590;2022-08-21T10:06:09;2.22;;;2.02;;
17372;SDS011;8803;48.116;11.590;2022-08-21T10:08:23;4.22;;;2.20;;
17372;SDS011;8803;48.116;11.590;2022-08-21T10:10:29;3.08;;;2.45;;
17372;SDS011;8803;48.116;11.590;2022-08-21T10:12:41;2.27;;;2.08;;
17372;SDS011;8803;48.116;11.590;2022-08-21T10:14:56;2.60;;;2.40;;
17372;SDS011;8803;48.116;11.590;2022-08-21T10:17:04;2.30;;;2.08;;
17372;SDS011;8803;48.116;11.590;2022-08-21T10:19:15;2.35;;;2.15;;
17372;SDS011;8803;48.116;11.590;2022-08-21T10:21:30;2.50;;;2.30;;
17372;SDS011;8803;48.116;11.590;2022-08-21T10:23:45;2.05;;;1.72;;
17372;SDS011;8803;48.116;11.590;2022-08-21T10:26:04;2.50;;;2.30;;
17372;SDS011;8803;48.116;11.590;2022-08-21T10:28:11;2.17;;;1.82;;
17372;SDS011;8803;48.116;11.590;2022-08-21T10:30:27;2.47;;;2.27;;
17372;SDS011;8803;48.116;11.590;2022-08-21T10:32:43;2.62;;;2.30;;
17372;SDS011;8803;48.116;11.590;2022-08-21T10:34:55;2.40;;;2.20;;
17372;SDS011;8803;48.116;11.590;2022-08-21T10:37:06;2.40;;;2.20;;
17372;SDS011;8803;48.116;11.590;2022-08-21T10:39:24;2.40;;;2.20;;
17372;SDS011;8803;48.116;11.590;2022-08-21T10:41:35;2.37;;;2.17;;
17372;SDS011;8803;48.116;11.590;2022-08-21T10:43:45;2.42;;;2.17;;
17372;SDS011;8803;48.116;11.590;2022-08-21T10:46:00;1.77;;;1.67;;
17372;SDS011;8803;48.116;11.590;2022-08-21T10:48:06;2.83;;;2.25;;
17372;SDS011;8803;48.116;11.590;2022-08-21T10:50:15;2.10;;;1.90;;
17372;SDS011;8803;48.116;11.590;2022-08-21T10:52:25;2.00;;;1.90;;
17372;SDS011;8803;48.116;11.590;2022-08-21T10:54:37;2.52;;;2.33;;
17372;SDS011;8803;48.116;11.590;2022-08-21T10:56:42;2.67;;;2.37;;
17372;SDS011;8803;48.116;11.590;2022-08-21T10:58:56;2.50;;;2.20;;
17372;SDS011;8803;48.116;11.590;2022-08-21T11:01:17;2.25;;;2.05;;
17372;SDS011;8803;48.116;11.590;2022-08-21T11:03:26;2.60;;;2.37;;
17372;SDS011;8803;48.116;11.590;2022-08-21T11:05:40;3.55;;;2.27;;
17372;SDS011;8803;48.116;11.590;2022-08-21T11:07:47;2.50;;;2.30;;
17372;SDS011;8803;48.116;11.590;2022-08-21T11:10:02;2.40;;;2.12;;
17372;SDS011;8803;48.116;11.590;2022-08-21T11:12:10;2.55;;;2.35;;
17372;SDS011;8803;48.116;11.590;2022-08-21T11:14:16;2.50;;;2.30;;
17372;SDS011;8803;48.116;11.590;2022-08-21T11:16:31;2.77;;;2.40;;
17372;SDS011;8803;48.116;11.590;2022-08-21T11:18:38;3.10;;;2.42;;
17372;SDS011;8803;48.116;11.590;2022-08-21T11:20:46;2.27;;;1.98;;
17372;SDS011;8803;48.116;11.590;2022-08-21T11:23:00;2.27;;;2.08;;
17372;SDS011;8803;48.116;11.590;2022-08-21T11:25:16;2.35;;;2.17;;
17372;SDS011;8803;48.116;11.590;2022-08-21T11:27:30;2.30;;;2.10;;
17372;SDS011;8803;48.116;11.590;2022-08-21T11:29:37;3.75;;;3.22;;
17372;SDS011;8803;48.116;11.590;2022-08-21T11:31:50;3.20;;;2.60;;
17372;SDS011;8803;48.116;11.590;2022-08-21T11:34:00;3.60;;;2.70;;
17372;SDS011;8803;48.116;11.590;2022-08-21T11:36:12;2.60;;;2.40;;
17372;SDS011;8803;48.116;11.590;2022-08-21T11:38:20;2.40;;;2.20;;
17372;SDS011;8803;48.116;11.590;2022-08-21T11:40:34;2.30;;;2.10;;
17372;SDS011;8803;48.116;11.590;2022-08-21T11:42:50;2.52;;;2.33;;
17372;SDS011;8803;48.116;11.590;2022-08-21T11:45:00;4.30;;;2.65;;
17372;SDS011;8803;48.116;11.590;2022-08-21T11:47:05;2.60;;;2.40;;
17372;SDS011;8803;48.116;11.590;2022-08-21T11:49:32;3.08;;;2.80;;
17372;SDS011;8803;48.116;11.590;2022-08-21T11:51:44;2.52;;;2.33;;
17372;SDS011;8803;48.116;11.590;2022-08-21T11:53:42;2.67;;;2.47;;
17372;SDS011;8803;48.116;11.590;2022-08-21T11:55:55;2.77;;;2.58;;
17372;SDS011;8803;48.116;11.590;2022-08-21T11:58:03;3.37;;;3.08;;
17372;SDS011;8803;48.116;11.590;2022-08-21T12:00:10;2.83;;;2.62;;
17372;SDS011;8803;48.116;11.590;2022-08-21T12:02:24;3.10;;;2.90;;
17372;SDS011;8803;48.116;11.590;2022-08-21T12:04:34;2.62;;;2.42;;
17372;SDS011;8803;48.116;11.590;2022-08-21T12:06:40;2.83;;;2.60;;
17372;SDS011;8803;48.116;11.590;2022-08-21T12:08:57;3.17;;;2.70;;
17372;SDS011;8803;48.116;11.590;2022-08-21T12:11:04;2.60;;;2.40;;
17372;SDS011;8803;48.116;11.590;2022-08-21T12:13:11;2.65;;;2.45;;
17372;SDS011;8803;48.116;11.590;2022-08-21T12:15:26;2.90;;;2.70;;
17372;SDS011;8803;48.116;11.590;2022-08-21T12:17:40;2.60;;;2.40;;
17372;SDS011;8803;48.116;11.590;2022-08-21T12:19:55;2.45;;;2.25;;
17372;SDS011;8803;48.116;11.590;2022-08-21T12:22:09;2.67;;;2.47;;
17372;SDS011;8803;48.116;11.590;2022-08-21T12:24:31;2.52;;;2.33;;
17372;SDS011;8803;48.116;11.590;2022-08-21T12:26:35;2.77;;;2.58;;
17372;SDS011;8803;48.116;11.590;2022-08-21T12:28:48;2.95;;;2.70;;
17372;SDS011;8803;48.116;11.590;2022-08-21T12:30:52;3.47;;;2.75;;
17372;SDS011;8803;48.116;11.590;2022-08-21T12:32:57;2.90;;;2.70;;
17372;SDS011;8803;48.116;11.590;2022-08-21T12:37:15;2.65;;;2.45;;
17372;SDS011;8803;48.116;11.590;2022-08-21T12:39:22;2.45;;;2.02;;
17372;SDS011;8803;48.116;11.590;2022-08-21T12:41:29;2.52;;;2.33;;
17372;SDS011;8803;48.116;11.590;2022-08-21T12:43:37;2.52;;;2.27;;
17372;SDS011;8803;48.116;11.590;2022-08-21T12:45:43;2.50;;;2.30;;
17372;SDS011;8803;48.116;11.590;2022-08-21T12:47:58;2.40;;;2.20;;
17372;SDS011;8803;48.116;11.590;2022-08-21T12:50:05;2.40;;;2.20;;
17372;SDS011;8803;48.116;11.590;2022-08-21T12:54:23;2.70;;;2.42;;
17372;SDS011;8803;48.116;11.590;2022-08-21T12:56:29;2.30;;;2.10;;
17372;SDS011;8803;48.116;11.590;2022-08-21T12:58:45;2.27;;;2.08;;
17372;SDS011;8803;48.116;11.590;2022-08-21T13:00:50;2.95;;;2.60;;
17372;SDS011;8803;48.116;11.590;2022-08-21T13:02:56;2.52;;;2.33;;
17372;SDS011;8803;48.116;11.590;2022-08-21T13:05:02;2.90;;;2.33;;
17372;SDS011;8803;48.116;11.590;2022-08-21T13:07:26;2.50;;;2.30;;
17372;SDS011;8803;48.116;11.590;2022-08-21T13:09:25;2.55;;;2.35;;